createdAt,value
2018-05-02T00:00:06.085Z,63.91
2018-05-02T00:02:34.361Z,63.90
2018-05-02T00:05:02.622Z,64.54
2018-05-02T00:07:30.897Z,65.04
2018-05-02T00:09:59.166Z,64.70
2018-05-02T00:12:27.445Z,65.07
2018-05-02T00:14:55.718Z,65.02
2018-05-02T00:17:23.999Z,65.75
2018-05-02T00:19:52.272Z,65.79
2018-05-02T00:22:20.542Z,66.33
2018-05-02T00:24:48.823Z,66.20
2018-05-02T00:27:17.092Z,66.32
2018-05-02T00:29:45.371Z,67.11
2018-05-02T00:32:13.638Z,66.30
2018-05-02T00:34:41.926Z,67.45
2018-05-02T00:37:10.206Z,66.75
2018-05-02T00:39:38.489Z,66.85
2018-05-02T00:42:06.774Z,67.42
2018-05-02T00:44:35.038Z,67.13
2018-05-02T00:47:03.309Z,67.05
2018-05-02T00:49:31.590Z,66.81
2018-05-02T00:51:59.889Z,67.05
2018-05-02T00:54:28.156Z,66.84
2018-05-02T00:56:56.422Z,67.00
2018-05-02T00:59:24.706Z,66.61
2018-05-02T01:01:52.975Z,66.61
2018-05-02T01:04:21.250Z,67.80
2018-05-02T01:06:49.518Z,67.11
2018-05-02T01:09:19.228Z,67.55
2018-05-02T01:11:47.664Z,67.59
2018-05-02T01:14:15.926Z,67.84
2018-05-02T01:16:44.202Z,68.43
2018-05-02T01:19:12.480Z,68.25
2018-05-02T01:21:40.821Z,69.02
2018-05-02T01:24:09.099Z,67.63
2018-05-02T01:26:37.373Z,67.73
2018-05-02T01:29:05.650Z,68.53
2018-05-02T01:31:33.968Z,68.70
2018-05-02T01:34:02.219Z,68.39
2018-05-02T01:36:30.482Z,67.73
2018-05-02T01:38:59.074Z,67.66
2018-05-02T01:41:27.370Z,67.57
2018-05-02T01:43:55.642Z,68.24
2018-05-02T01:46:23.924Z,69.25
2018-05-02T01:49:04.022Z,68.49
2018-05-02T01:51:32.323Z,68.58
2018-05-02T01:54:00.578Z,68.51
2018-05-02T01:56:28.846Z,68.88
2018-05-02T01:58:57.124Z,68.76
2018-05-02T02:01:25.387Z,68.76
2018-05-02T02:03:53.698Z,69.43
2018-05-02T02:06:21.968Z,68.54
2018-05-02T02:08:50.230Z,69.76
2018-05-02T02:11:18.506Z,69.61
2018-05-02T02:13:46.768Z,69.51
2018-05-02T02:16:15.050Z,69.74
2018-05-02T02:18:43.330Z,69.34
2018-05-02T02:21:11.594Z,69.89
2018-05-02T02:23:39.874Z,69.33
2018-05-02T02:26:08.135Z,70.04
2018-05-02T02:28:36.434Z,69.31
2018-05-02T02:31:04.702Z,70.35
2018-05-02T02:33:32.978Z,70.49
2018-05-02T02:36:01.261Z,70.12
2018-05-02T02:38:29.523Z,70.88
2018-05-02T02:40:57.799Z,70.14
2018-05-02T02:43:26.070Z,71.07
2018-05-02T02:45:54.340Z,71.23
2018-05-02T02:48:22.626Z,71.98
2018-05-02T02:50:50.907Z,72.01
2018-05-02T02:53:19.191Z,71.31
2018-05-02T02:55:47.462Z,71.65
2018-05-02T02:58:15.724Z,72.37
2018-05-02T03:00:44.008Z,72.85
2018-05-02T03:03:12.286Z,72.76
2018-05-02T03:05:40.582Z,72.88
2018-05-02T03:08:08.856Z,72.60
2018-05-02T03:10:37.140Z,72.98
2018-05-02T03:13:05.414Z,72.58
2018-05-02T03:15:33.691Z,72.69
2018-05-02T03:18:01.982Z,72.42
2018-05-02T03:20:30.254Z,72.21
2018-05-02T03:22:58.527Z,72.38
2018-05-02T03:25:26.799Z,72.74
2018-05-02T03:27:55.070Z,72.42
2018-05-02T03:30:23.357Z,72.23
2018-05-02T03:32:51.630Z,73.82
2018-05-02T03:35:19.894Z,73.14
2018-05-02T03:37:48.177Z,72.31
2018-05-02T03:40:16.453Z,71.92
2018-05-02T03:42:44.734Z,71.85
2018-05-02T03:45:12.999Z,71.92
2018-05-02T03:47:41.277Z,71.92
2018-05-02T03:50:09.552Z,71.75
2018-05-02T03:52:37.835Z,71.24
2018-05-02T03:55:06.110Z,71.68
2018-05-02T03:57:34.386Z,71.41
2018-05-02T04:00:14.505Z,71.42
2018-05-02T04:02:54.475Z,71.13
2018-05-02T04:05:34.599Z,71.46
2018-05-02T04:08:02.869Z,71.85
2018-05-02T04:10:31.138Z,72.00
2018-05-02T04:12:59.426Z,71.95
2018-05-02T04:15:27.702Z,72.17
2018-05-02T04:17:55.995Z,72.58
2018-05-02T04:20:24.272Z,71.76
2018-05-02T04:22:52.543Z,71.78
2018-05-02T04:25:20.826Z,72.16
2018-05-02T04:27:49.099Z,71.36
2018-05-02T04:30:17.384Z,71.16
2018-05-02T04:32:45.869Z,71.57
2018-05-02T04:35:14.153Z,71.76
2018-05-02T04:37:42.441Z,71.80
2018-05-02T04:40:10.714Z,72.07
2018-05-02T04:42:39.007Z,71.98
2018-05-02T04:45:07.286Z,71.27
2018-05-02T04:47:35.558Z,71.08
2018-05-02T04:50:03.835Z,71.68
2018-05-02T04:52:32.098Z,72.04
2018-05-02T04:55:00.378Z,71.22
2018-05-02T04:57:28.654Z,71.64
2018-05-02T04:59:56.918Z,71.35
2018-05-02T05:02:25.199Z,71.47
2018-05-02T05:04:53.475Z,71.37
2018-05-02T05:07:21.757Z,71.66
2018-05-02T05:09:50.025Z,71.46
2018-05-02T05:12:18.363Z,71.27
2018-05-02T05:14:46.578Z,71.78
2018-05-02T05:17:14.845Z,72.11
2018-05-02T05:19:43.143Z,71.41
2018-05-02T05:22:11.417Z,71.62
2018-05-02T05:24:39.702Z,71.67
2018-05-02T05:27:07.982Z,71.25
2018-05-02T05:29:36.258Z,71.29
2018-05-02T05:32:04.561Z,70.95
2018-05-02T05:34:32.858Z,70.60
2018-05-02T05:37:01.126Z,70.11
2018-05-02T05:39:29.404Z,70.53
2018-05-02T05:41:57.675Z,71.25
2018-05-02T05:44:25.962Z,70.75
2018-05-02T05:46:54.238Z,70.25
2018-05-02T05:49:22.514Z,70.34
2018-05-02T05:51:50.794Z,70.33
2018-05-02T05:54:19.143Z,70.30
2018-05-02T05:56:47.400Z,70.55
2018-05-02T05:59:15.678Z,70.03
2018-05-02T06:01:43.969Z,69.72
2018-05-02T06:04:12.287Z,69.63
2018-05-02T06:06:40.617Z,68.63
2018-05-02T06:09:08.846Z,68.62
2018-05-02T06:11:37.138Z,67.85
2018-05-02T06:14:05.411Z,67.55
2018-05-02T06:16:33.699Z,67.80
2018-05-02T06:19:01.975Z,67.16
2018-05-02T06:21:30.535Z,67.01
2018-05-02T06:23:58.802Z,66.29
2018-05-02T06:26:27.083Z,65.44
2018-05-02T06:28:56.242Z,65.05
2018-05-02T06:31:24.510Z,64.29
2018-05-02T06:33:52.786Z,64.30
2018-05-02T06:36:21.067Z,63.78
2018-05-02T06:38:49.334Z,63.61
2018-05-02T06:41:17.610Z,63.15
2018-05-02T06:43:45.896Z,62.22
2018-05-02T06:46:14.176Z,61.69
2018-05-02T06:48:42.463Z,61.47
2018-05-02T06:51:10.747Z,61.41
2018-05-02T06:53:39.031Z,61.07
2018-05-02T06:56:07.319Z,60.46
2018-05-02T06:58:35.618Z,59.43
2018-05-02T07:01:03.914Z,58.49
2018-05-02T07:03:32.195Z,58.50
2018-05-02T07:06:00.474Z,58.25
2018-05-02T07:08:28.758Z,59.60
2018-05-02T07:10:57.027Z,58.26
2018-05-02T07:13:25.339Z,59.41
2018-05-02T07:15:53.594Z,58.56
2018-05-02T07:18:21.863Z,59.21
2018-05-02T07:20:50.146Z,58.65
2018-05-02T07:23:18.418Z,59.19
2018-05-02T07:25:46.714Z,57.54
2018-05-02T07:28:14.984Z,58.51
2018-05-02T07:30:43.255Z,56.76
2018-05-02T07:33:11.537Z,57.45
2018-05-02T07:35:39.822Z,56.54
2018-05-02T07:38:08.106Z,54.94
2018-05-02T07:40:36.382Z,52.58
2018-05-02T07:43:04.643Z,53.00
2018-05-02T07:45:32.920Z,51.75
2018-05-02T07:48:01.191Z,50.73
2018-05-02T07:50:29.472Z,50.52
2018-05-02T07:52:57.746Z,49.74
2018-05-02T07:55:26.029Z,48.46
2018-05-02T07:57:54.299Z,48.78
2018-05-02T08:00:22.591Z,50.91
2018-05-02T08:02:51.270Z,49.15
2018-05-02T08:05:19.538Z,49.22
2018-05-02T08:07:47.810Z,45.84
2018-05-02T08:10:16.094Z,44.71
2018-05-02T08:12:44.361Z,44.37
2018-05-02T08:15:12.930Z,43.86
2018-05-02T08:17:41.217Z,44.00
2018-05-02T08:20:09.484Z,43.26
2018-05-02T08:22:37.762Z,41.84
2018-05-02T08:25:06.038Z,41.22
2018-05-02T08:27:34.321Z,40.71
2018-05-02T08:30:02.597Z,40.36
2018-05-02T08:32:30.891Z,42.46
2018-05-02T08:34:59.158Z,41.04
2018-05-02T08:37:27.430Z,39.65
2018-05-02T08:39:55.706Z,41.27
2018-05-02T08:42:23.982Z,39.67
2018-05-02T08:44:52.274Z,39.52
2018-05-02T08:47:20.570Z,40.00
2018-05-02T08:49:48.887Z,39.68
2018-05-02T08:52:17.121Z,38.93
2018-05-02T08:54:45.399Z,38.18
2018-05-02T08:57:13.696Z,37.85
2018-05-02T08:59:41.974Z,38.00
2018-05-02T09:02:10.250Z,37.84
2018-05-02T09:04:38.543Z,35.67
2018-05-02T09:07:06.807Z,34.96
2018-05-02T09:09:35.385Z,34.39
2018-05-02T09:12:03.650Z,34.30
2018-05-02T09:14:31.918Z,33.67
2018-05-02T09:17:00.194Z,33.61
2018-05-02T09:19:28.468Z,32.99
2018-05-02T09:21:56.750Z,33.92
2018-05-02T09:24:25.048Z,34.96
2018-05-02T09:26:53.317Z,35.75
2018-05-02T09:29:21.603Z,36.17
2018-05-02T09:31:49.903Z,35.88
2018-05-02T09:34:18.189Z,35.46
2018-05-02T09:36:46.479Z,34.55
2018-05-02T09:39:14.755Z,35.50
2018-05-02T09:41:43.031Z,34.80
2018-05-02T09:44:11.349Z,34.11
2018-05-02T09:46:39.606Z,33.95
2018-05-02T09:49:07.874Z,33.63
2018-05-02T09:51:36.171Z,34.85
2018-05-02T09:54:04.454Z,34.99
2018-05-02T09:56:32.745Z,35.77
2018-05-02T09:59:01.035Z,33.85
2018-05-02T10:01:29.306Z,34.06
2018-05-02T10:03:57.574Z,33.43
2018-05-02T10:06:25.859Z,33.51
2018-05-02T10:08:54.130Z,33.67
2018-05-02T10:11:22.426Z,33.58
2018-05-02T10:13:50.734Z,33.09
2018-05-02T10:16:19.006Z,32.81
2018-05-02T10:18:47.289Z,32.08
2018-05-02T10:21:15.563Z,32.70
2018-05-02T10:23:43.854Z,32.13
2018-05-02T10:26:12.203Z,31.73
2018-05-02T10:28:40.407Z,31.40
2018-05-02T10:31:08.677Z,32.77
2018-05-02T10:33:36.954Z,32.22
2018-05-02T10:36:05.273Z,34.10
2018-05-02T10:38:33.550Z,33.93
2018-05-02T10:41:01.834Z,34.60
2018-05-02T10:43:30.127Z,33.34
2018-05-02T10:45:58.411Z,34.05
2018-05-02T10:48:26.724Z,33.33
2018-05-02T10:50:54.990Z,33.53
2018-05-02T10:53:23.266Z,32.93
2018-05-02T10:55:51.619Z,33.66
2018-05-02T10:58:19.814Z,34.12
2018-05-02T11:00:48.118Z,34.11
2018-05-02T11:03:16.398Z,33.13
2018-05-02T11:05:44.666Z,33.58
2018-05-02T11:08:13.006Z,34.19
2018-05-02T11:10:41.305Z,34.10
2018-05-02T11:13:09.585Z,33.70
2018-05-02T11:15:37.852Z,33.75
2018-05-02T11:18:06.123Z,34.05
2018-05-02T11:20:34.397Z,33.26
2018-05-02T11:23:02.675Z,33.09
2018-05-02T11:25:30.976Z,33.00
2018-05-02T11:27:59.244Z,33.25
2018-05-02T11:30:27.510Z,34.99
2018-05-02T11:32:55.795Z,33.17
2018-05-02T11:35:24.066Z,32.96
2018-05-02T11:37:52.350Z,33.52
2018-05-02T11:40:20.623Z,32.89
2018-05-02T11:42:48.912Z,33.18
2018-05-02T11:45:17.188Z,33.89
2018-05-02T11:47:45.457Z,33.77
2018-05-02T11:50:13.742Z,33.54
2018-05-02T11:52:42.015Z,32.62
2018-05-02T11:55:10.287Z,33.43
2018-05-02T11:57:38.559Z,32.07
2018-05-02T12:00:06.827Z,32.47
2018-05-02T12:02:35.161Z,33.09
2018-05-02T12:05:03.377Z,34.07
2018-05-02T12:07:31.646Z,33.95
2018-05-02T12:09:59.949Z,33.80
2018-05-02T12:12:28.222Z,33.84
2018-05-02T12:14:56.507Z,34.01
2018-05-02T12:17:24.773Z,33.94
2018-05-02T12:19:54.053Z,35.29
2018-05-02T12:22:22.368Z,34.53
2018-05-02T12:24:50.625Z,35.17
2018-05-02T12:27:18.910Z,34.47
2018-05-02T12:29:47.175Z,34.64
2018-05-02T12:32:15.738Z,35.25
2018-05-02T12:34:44.070Z,34.99
2018-05-02T12:37:12.346Z,35.58
2018-05-02T12:39:40.634Z,35.03
2018-05-02T12:42:08.952Z,35.38
2018-05-02T12:44:37.334Z,36.35
2018-05-02T12:47:05.621Z,36.20
2018-05-02T12:49:33.894Z,35.37
2018-05-02T12:52:02.210Z,35.51
2018-05-02T12:54:30.491Z,35.90
2018-05-02T12:56:58.782Z,36.59
2018-05-02T12:59:27.054Z,35.71
2018-05-02T13:01:55.339Z,36.33
2018-05-02T13:04:23.616Z,35.09
2018-05-02T13:06:51.945Z,34.79
2018-05-02T13:09:20.200Z,34.99
2018-05-02T13:11:48.470Z,35.78
2018-05-02T13:14:16.737Z,35.91
2018-05-02T13:16:45.016Z,36.19
2018-05-02T13:19:13.379Z,36.70
2018-05-02T13:21:41.683Z,36.07
2018-05-02T13:24:09.950Z,36.03
2018-05-02T13:26:38.231Z,35.74
2018-05-02T13:29:06.504Z,35.83
2018-05-02T13:31:34.797Z,36.00
2018-05-02T13:34:03.102Z,35.35
2018-05-02T13:36:31.370Z,36.79
2018-05-02T13:38:59.644Z,36.54
2018-05-02T13:41:27.918Z,36.05
2018-05-02T13:43:56.237Z,36.37
2018-05-02T13:46:24.508Z,36.72
2018-05-02T13:48:52.790Z,36.33
2018-05-02T13:51:21.346Z,36.68
2018-05-02T13:53:49.622Z,36.69
2018-05-02T13:56:17.893Z,35.86
2018-05-02T13:58:46.189Z,35.66
2018-05-02T14:01:14.468Z,35.86
2018-05-02T14:03:42.782Z,35.47
2018-05-02T14:06:11.053Z,35.36
2018-05-02T14:08:39.326Z,34.96
2018-05-02T14:11:07.615Z,35.36
2018-05-02T14:13:35.886Z,36.03
2018-05-02T14:16:04.177Z,36.94
2018-05-02T14:18:32.474Z,37.14
2018-05-02T14:21:00.745Z,36.43
2018-05-02T14:23:29.023Z,35.82
2018-05-02T14:25:58.107Z,36.31
2018-05-02T14:28:26.407Z,36.05
2018-05-02T14:30:54.682Z,36.18
2018-05-02T14:33:22.950Z,36.17
2018-05-02T14:35:51.226Z,36.69
2018-05-02T14:38:19.495Z,36.62
2018-05-02T14:40:47.778Z,37.21
2018-05-02T14:43:16.050Z,37.13
2018-05-02T14:45:44.318Z,36.94
2018-05-02T14:48:12.611Z,36.62
2018-05-02T14:50:40.867Z,35.81
2018-05-02T14:53:09.154Z,35.97
2018-05-02T14:55:37.426Z,35.86
2018-05-02T14:58:05.703Z,36.47
2018-05-02T15:00:33.998Z,35.85
2018-05-02T15:03:02.266Z,36.18
2018-05-02T15:05:30.558Z,35.96
2018-05-02T15:07:58.853Z,36.01
2018-05-02T15:10:27.127Z,35.65
2018-05-02T15:12:55.406Z,36.40
2018-05-02T15:15:23.690Z,36.09
2018-05-02T15:17:52.054Z,35.54
2018-05-02T15:20:20.250Z,36.23
2018-05-02T15:22:48.527Z,35.68
2018-05-02T15:25:16.814Z,35.32
2018-05-02T15:27:45.092Z,36.51
2018-05-02T15:30:13.403Z,36.17
2018-05-02T15:32:41.745Z,36.06
2018-05-02T15:35:09.942Z,36.27
2018-05-02T15:37:38.221Z,36.68
2018-05-02T15:40:06.507Z,36.15
2018-05-02T15:42:34.796Z,36.36
2018-05-02T15:45:03.066Z,37.02
2018-05-02T15:47:31.339Z,36.85
2018-05-02T15:49:59.619Z,36.50
2018-05-02T15:52:27.890Z,36.26
2018-05-02T15:54:56.180Z,37.22
2018-05-02T15:57:24.466Z,37.31
2018-05-02T15:59:52.806Z,37.23
2018-05-02T16:02:21.086Z,37.30
2018-05-02T16:04:49.522Z,37.27
2018-05-02T16:07:17.806Z,36.86
2018-05-02T16:09:46.069Z,36.63
2018-05-02T16:12:14.354Z,36.94
2018-05-02T16:14:42.620Z,36.88
2018-05-02T16:17:10.894Z,36.76
2018-05-02T16:19:39.166Z,36.19
2018-05-02T16:22:07.473Z,36.92
2018-05-02T16:24:35.974Z,37.40
2018-05-02T16:27:04.241Z,37.29
2018-05-02T16:29:32.515Z,36.91
2018-05-02T16:32:00.854Z,37.00
2018-05-02T16:34:29.090Z,37.23
2018-05-02T16:36:57.594Z,37.23
2018-05-02T16:39:25.870Z,36.75
2018-05-02T16:41:54.130Z,37.63
2018-05-02T16:44:22.415Z,37.47
2018-05-02T16:46:50.691Z,36.99
2018-05-02T16:49:19.066Z,38.01
2018-05-02T16:51:47.343Z,37.83
2018-05-02T16:54:15.633Z,37.96
2018-05-02T16:56:43.917Z,37.54
2018-05-02T16:59:12.182Z,36.98
2018-05-02T17:01:40.471Z,37.95
2018-05-02T17:04:08.852Z,37.37
2018-05-02T17:06:37.013Z,37.70
2018-05-02T17:09:06.010Z,38.03
2018-05-02T17:11:34.272Z,38.28
2018-05-02T17:14:02.554Z,37.73
2018-05-02T17:16:30.849Z,37.90
2018-05-02T17:18:59.118Z,38.32
2018-05-02T17:21:27.406Z,38.10
2018-05-02T17:23:55.680Z,37.65
2018-05-02T17:26:23.971Z,37.92
2018-05-02T17:28:52.246Z,38.34
2018-05-02T17:31:20.512Z,38.20
2018-05-02T17:33:48.787Z,38.36
2018-05-02T17:36:17.076Z,37.98
2018-05-02T17:38:45.684Z,38.24
2018-05-02T17:41:13.963Z,38.29
2018-05-02T17:43:42.230Z,38.25
2018-05-02T17:46:10.566Z,38.64
2018-05-02T17:48:38.837Z,38.30
2018-05-02T17:51:07.144Z,38.63
2018-05-02T17:53:35.431Z,38.69
2018-05-02T17:56:03.691Z,38.97
2018-05-02T17:58:31.969Z,39.20
2018-05-02T18:01:00.251Z,39.62
2018-05-02T18:03:28.550Z,39.36
2018-05-02T18:05:56.814Z,39.81
2018-05-02T18:08:25.083Z,39.89
2018-05-02T18:10:53.354Z,40.25
2018-05-02T18:13:21.634Z,40.23
2018-05-02T18:15:50.904Z,40.34
2018-05-02T18:18:19.185Z,41.06
2018-05-02T18:20:47.468Z,41.01
2018-05-02T18:23:15.806Z,40.86
2018-05-02T18:25:44.063Z,41.27
2018-05-02T18:28:14.289Z,40.91
2018-05-02T18:30:42.570Z,41.27
2018-05-02T18:33:11.778Z,41.37
2018-05-02T18:35:41.038Z,41.80
2018-05-02T18:38:09.285Z,41.80
2018-05-02T18:40:37.567Z,42.31
2018-05-02T18:43:05.858Z,42.37
2018-05-02T18:45:34.136Z,42.21
2018-05-02T18:48:02.427Z,42.33
2018-05-02T18:50:30.696Z,42.74
2018-05-02T18:52:59.257Z,42.90
2018-05-02T18:55:27.534Z,43.40
2018-05-02T18:57:55.797Z,42.93
2018-05-02T19:00:24.092Z,43.09
2018-05-02T19:02:52.366Z,43.52
2018-05-02T19:05:20.654Z,43.86
2018-05-02T19:07:48.918Z,43.58
2018-05-02T19:10:17.197Z,43.73
2018-05-02T19:12:45.490Z,44.19
2018-05-02T19:15:13.750Z,44.10
2018-05-02T19:20:49.154Z,45.12
2018-05-02T19:23:17.441Z,45.13
2018-05-02T19:25:51.365Z,45.41
2018-05-02T19:28:19.646Z,45.58
2018-05-02T19:33:54.144Z,46.43
2018-05-02T19:36:22.447Z,47.05
2018-05-02T19:38:50.994Z,46.72
2018-05-02T19:41:24.795Z,47.38
2018-05-02T19:43:58.596Z,47.47
2018-05-02T19:46:26.869Z,47.39
2018-05-02T19:48:55.145Z,48.04
2018-05-02T19:51:29.112Z,48.19
2018-05-02T19:53:57.404Z,47.66
2018-05-02T19:56:30.097Z,48.15
2018-05-02T19:58:58.371Z,48.10
2018-05-02T20:01:32.103Z,48.26
2018-05-02T20:04:00.528Z,48.42
2018-05-02T20:06:28.787Z,48.45
2018-05-02T20:09:02.696Z,48.68
2018-05-02T20:11:37.582Z,48.98
2018-05-02T20:14:08.401Z,49.37
2018-05-02T20:16:36.689Z,49.77
2018-05-02T20:19:05.004Z,50.17
2018-05-02T20:21:33.252Z,50.18
2018-05-02T20:24:01.519Z,50.65
2018-05-02T20:26:29.809Z,50.44
2018-05-02T20:28:58.086Z,50.60
2018-05-02T20:31:26.374Z,50.70
2018-05-02T20:33:54.660Z,50.79
2018-05-02T20:36:22.922Z,50.88
2018-05-02T20:38:51.218Z,50.80
2018-05-02T20:41:19.489Z,51.31
2018-05-02T20:43:47.774Z,51.12
2018-05-02T20:46:16.046Z,51.21
2018-05-02T20:48:44.350Z,51.98
2018-05-02T20:51:12.642Z,51.98
2018-05-02T20:53:40.914Z,51.86
2018-05-02T20:56:09.233Z,51.68
2018-05-02T20:58:37.509Z,51.48
2018-05-02T21:01:05.781Z,51.31
2018-05-02T21:03:34.083Z,51.99
2018-05-02T21:06:02.351Z,51.91
2018-05-02T21:08:30.984Z,52.08
2018-05-02T21:10:59.275Z,52.39
2018-05-02T21:13:27.698Z,53.26
2018-05-02T21:15:55.980Z,53.92
2018-05-02T21:18:24.259Z,54.05
2018-05-02T21:20:52.534Z,53.86
2018-05-02T21:23:20.826Z,53.75
2018-05-02T21:25:49.102Z,53.67
2018-05-02T21:28:17.395Z,53.50
2018-05-02T21:30:45.690Z,53.71
2018-05-02T21:33:13.980Z,53.88
2018-05-02T21:35:42.250Z,54.23
2018-05-02T21:38:10.527Z,54.26
2018-05-02T21:40:38.870Z,54.64
2018-05-02T21:43:07.103Z,54.71
2018-05-02T21:45:35.387Z,54.62
2018-05-02T21:48:03.656Z,55.04
2018-05-02T21:50:31.938Z,55.47
2018-05-02T21:53:00.217Z,55.61
2018-05-02T21:55:28.486Z,55.86
2018-05-02T21:57:57.028Z,55.78
2018-05-02T22:00:25.300Z,55.91
2018-05-02T22:02:53.594Z,56.57
2018-05-02T22:05:21.882Z,56.54
2018-05-02T22:07:50.150Z,56.27
2018-05-02T22:10:18.439Z,56.48
2018-05-02T22:12:46.715Z,56.47
2018-05-02T22:15:15.007Z,57.00
2018-05-02T22:17:43.283Z,56.98
2018-05-02T22:20:11.558Z,57.43
2018-05-02T22:22:39.846Z,57.58
2018-05-02T22:25:08.115Z,57.69
2018-05-02T22:27:36.391Z,57.50
2018-05-02T22:30:04.696Z,59.19
2018-05-02T22:32:32.966Z,58.62
2018-05-02T22:35:01.633Z,58.01
2018-05-02T22:37:29.889Z,57.86
2018-05-02T22:39:58.185Z,58.92
2018-05-02T22:42:26.474Z,58.23
2018-05-02T22:44:54.746Z,58.40
2018-05-02T22:47:23.067Z,58.63
2018-05-02T22:49:51.334Z,59.05
2018-05-02T22:52:19.613Z,59.22
2018-05-02T22:54:47.898Z,59.05
2018-05-02T22:57:16.182Z,59.31
2018-05-02T22:59:44.567Z,59.19
2018-05-02T23:02:12.841Z,58.93
2018-05-02T23:04:42.049Z,58.97
2018-05-02T23:07:10.336Z,59.56
2018-05-02T23:09:38.610Z,60.21
2018-05-02T23:12:06.904Z,59.14
2018-05-02T23:14:35.180Z,59.33
2018-05-02T23:17:03.461Z,59.05
2018-05-02T23:19:31.766Z,59.41
2018-05-02T23:22:03.285Z,59.79
2018-05-02T23:24:31.582Z,59.07
2018-05-02T23:26:59.851Z,59.17
2018-05-02T23:29:28.135Z,58.97
2018-05-02T23:31:56.410Z,59.16
2018-05-02T23:34:24.687Z,58.71
2018-05-02T23:36:53.244Z,59.36
2018-05-02T23:39:21.519Z,59.47
2018-05-02T23:41:49.804Z,59.61
2018-05-02T23:44:18.105Z,59.74
2018-05-02T23:46:46.367Z,60.34
2018-05-02T23:49:14.650Z,60.80
2018-05-02T23:51:42.925Z,60.19
2018-05-02T23:54:11.202Z,60.33
2018-05-02T23:56:39.485Z,60.76
2018-05-02T23:59:07.754Z,60.77
